sensor_id;sensor_type;location;lat;lon;timestamp;P1;durP1;ratioP1;P2;durP2;ratioP2
56593;SDS011;42474;51.660;5.824;2023-09-07T10:17:21;5.52;;;4.85;;
56593;SDS011;42474;51.660;5.824;2023-09-07T10:21:13;10.4;;;5.7;;
56593;SDS011;42474;51.660;5.824;2023-09-07T10:25:22;5.62;;;4.68;;
56593;SDS011;42474;51.660;5.824;2023-09-07T10:33:19;5.63;;;5.1;;
56593;SDS011;42474;51.660;5.824;2023-09-07T10:37:14;5.57;;;4.93;;
56593;SDS011;42474;51.660;5.824;2023-09-07T10:41:13;7.4;;;5.71;;
56593;SDS011;42474;51.660;5.824;2023-09-07T10:45:16;8.01;;;5.53;;
56593;SDS011;42474;51.660;5.824;2023-09-07T10:49:18;5.52;;;5.03;;
56593;SDS011;42474;51.660;5.824;2023-09-07T10:53:14;5.6;;;5.06;;
56593;SDS011;42474;51.660;5.824;2023-09-07T10:57:13;5.66;;;5.2;;
56593;SDS011;42474;51.660;5.824;2023-09-07T11:01:13;5.8;;;4.78;;
56593;SDS011;42474;51.660;5.824;2023-09-07T11:05:13;7.47;;;5.55;;
56593;SDS011;42474;51.660;5.824;2023-09-07T11:09:13;5.7;;;5.22;;
56593;SDS011;42474;51.660;5.824;2023-09-07T11:13:15;6.18;;;5.09;;
56593;SDS011;42474;51.660;5.824;2023-09-07T11:17:13;5.47;;;4.92;;
56593;SDS011;42474;51.660;5.824;2023-09-07T11:21:14;5.26;;;4.79;;
56593;SDS011;42474;51.660;5.824;2023-09-07T11:25:14;6.13;;;5.35;;
56593;SDS011;42474;51.660;5.824;2023-09-07T11:29:14;6.84;;;5.02;;
56593;SDS011;42474;51.660;5.824;2023-09-07T11:33:15;6.13;;;5.4;;
56593;SDS011;42474;51.660;5.824;2023-09-07T11:37:13;7.47;;;5.13;;
56593;SDS011;42474;51.660;5.824;2023-09-07T11:41:13;4.84;;;4.42;;
56593;SDS011;42474;51.660;5.824;2023-09-07T11:45:13;5.48;;;4.67;;
56593;SDS011;42474;51.660;5.824;2023-09-07T11:49:13;5.3;;;4.83;;
56593;SDS011;42474;51.660;5.824;2023-09-07T11:53:13;5.49;;;4.91;;
56593;SDS011;42474;51.660;5.824;2023-09-07T11:57:13;5.62;;;4.74;;
56593;SDS011;42474;51.660;5.824;2023-09-07T12:01:13;5.6;;;4.97;;
56593;SDS011;42474;51.660;5.824;2023-09-07T12:05:14;5.17;;;4.75;;
56593;SDS011;42474;51.660;5.824;2023-09-07T12:09:13;4.98;;;4.6;;
56593;SDS011;42474;51.660;5.824;2023-09-07T12:13:13;7.63;;;5.1;;
56593;SDS011;42474;51.660;5.824;2023-09-07T12:17:13;5.63;;;4.64;;
56593;SDS011;42474;51.660;5.824;2023-09-07T12:21:13;5.39;;;4.89;;
56593;SDS011;42474;51.660;5.824;2023-09-07T12:25:13;4.92;;;4.46;;
56593;SDS011;42474;51.660;5.824;2023-09-07T12:29:13;4.86;;;4.42;;
56593;SDS011;42474;51.660;5.824;2023-09-07T12:33:13;4.55;;;4.25;;
56593;SDS011;42474;51.660;5.824;2023-09-07T12:37:13;4.77;;;4.06;;
56593;SDS011;42474;51.660;5.824;2023-09-07T12:41:14;4.76;;;4.34;;
56593;SDS011;42474;51.660;5.824;2023-09-07T12:45:13;4.92;;;4.23;;
56593;SDS011;42474;51.660;5.824;2023-09-07T12:49:13;5.86;;;4.47;;
56593;SDS011;42474;51.660;5.824;2023-09-07T12:53:14;5.07;;;4.35;;
56593;SDS011;42474;51.660;5.824;2023-09-07T12:57:13;4.77;;;4.41;;
56593;SDS011;42474;51.660;5.824;2023-09-07T13:01:13;5.52;;;4.77;;
56593;SDS011;42474;51.660;5.824;2023-09-07T13:05:13;4.78;;;4.41;;
56593;SDS011;42474;51.660;5.824;2023-09-07T13:09:13;4.7;;;4.27;;
56593;SDS011;42474;51.660;5.824;2023-09-07T13:13:13;5.1;;;4.68;;
56593;SDS011;42474;51.660;5.824;2023-09-07T13:17:13;5.49;;;4.81;;
56593;SDS011;42474;51.660;5.824;2023-09-07T13:21:13;5.23;;;4.36;;
56593;SDS011;42474;51.660;5.824;2023-09-07T13:25:14;5.73;;;4.58;;
56593;SDS011;42474;51.660;5.824;2023-09-07T13:29:13;5.06;;;4.5;;
56593;SDS011;42474;51.660;5.824;2023-09-07T13:33:13;4.83;;;4.42;;
56593;SDS011;42474;51.660;5.824;2023-09-07T13:37:13;6.36;;;4.53;;
56593;SDS011;42474;51.660;5.824;2023-09-07T13:41:13;6.87;;;4.45;;
56593;SDS011;42474;51.660;5.824;2023-09-07T13:45:13;5.09;;;4.7;;
56593;SDS011;42474;51.660;5.824;2023-09-07T13:49:13;5.54;;;4.8;;
56593;SDS011;42474;51.660;5.824;2023-09-07T13:53:13;5.29;;;4.81;;
56593;SDS011;42474;51.660;5.824;2023-09-07T13:57:13;4.87;;;4.44;;
56593;SDS011;42474;51.660;5.824;2023-09-07T14:01:14;5.5;;;4.98;;
56593;SDS011;42474;51.660;5.824;2023-09-07T14:05:13;4.57;;;4.2;;
56593;SDS011;42474;51.660;5.824;2023-09-07T14:09:13;4.68;;;4.28;;
56593;SDS011;42474;51.660;5.824;2023-09-07T14:13:13;5.36;;;4.45;;
56593;SDS011;42474;51.660;5.824;2023-09-07T14:17:13;4.81;;;4.44;;
56593;SDS011;42474;51.660;5.824;2023-09-07T14:21:14;12.5;;;5.12;;
56593;SDS011;42474;51.660;5.824;2023-09-07T14:25:14;5;;;4.63;;
56593;SDS011;42474;51.660;5.824;2023-09-07T14:29:13;5.35;;;4.87;;
56593;SDS011;42474;51.660;5.824;2023-09-07T14:33:13;4.54;;;4.2;;
56593;SDS011;42474;51.660;5.824;2023-09-07T14:37:13;4.81;;;4.45;;
56593;SDS011;42474;51.660;5.824;2023-09-07T14:41:14;5.12;;;4.61;;
56593;SDS011;42474;51.660;5.824;2023-09-07T14:45:14;5.22;;;4.65;;
56593;SDS011;42474;51.660;5.824;2023-09-07T14:49:13;5.07;;;4.32;;
56593;SDS011;42474;51.660;5.824;2023-09-07T14:53:13;5.1;;;4.47;;
56593;SDS011;42474;51.660;5.824;2023-09-07T14:57:13;4.83;;;4.41;;
56593;SDS011;42474;51.660;5.824;2023-09-07T15:01:13;4.75;;;4.3;;
56593;SDS011;42474;51.660;5.824;2023-09-07T15:05:14;5.21;;;4.76;;
56593;SDS011;42474;51.660;5.824;2023-09-07T15:09:14;5.31;;;4.75;;
56593;SDS011;42474;51.660;5.824;2023-09-07T15:13:14;5.13;;;4.57;;
56593;SDS011;42474;51.660;5.824;2023-09-07T15:17:14;4.64;;;4.29;;
56593;SDS011;42474;51.660;5.824;2023-09-07T15:21:13;5.22;;;4.75;;
56593;SDS011;42474;51.660;5.824;2023-09-07T15:25:14;5.43;;;4.53;;
56593;SDS011;42474;51.660;5.824;2023-09-07T15:29:14;5.28;;;4.85;;
56593;SDS011;42474;51.660;5.824;2023-09-07T15:33:13;5.51;;;4.75;;
56593;SDS011;42474;51.660;5.824;2023-09-07T15:37:14;6.24;;;4.53;;
56593;SDS011;42474;51.660;5.824;2023-09-07T15:41:13;5.58;;;4.61;;
56593;SDS011;42474;51.660;5.824;2023-09-07T15:45:14;5.41;;;4.67;;
56593;SDS011;42474;51.660;5.824;2023-09-07T15:49:14;5.35;;;4.63;;
56593;SDS011;42474;51.660;5.824;2023-09-07T15:53:13;4.89;;;4.51;;
56593;SDS011;42474;51.660;5.824;2023-09-07T15:57:14;5.4;;;4.48;;
56593;SDS011;42474;51.660;5.824;2023-09-07T16:01:13;5.39;;;4.91;;
56593;SDS011;42474;51.660;5.824;2023-09-07T16:05:14;7.35;;;4.83;;
56593;SDS011;42474;51.660;5.824;2023-09-07T16:09:14;5.12;;;4.6;;
56593;SDS011;42474;51.660;5.824;2023-09-07T16:13:13;4.8;;;4.46;;
56593;SDS011;42474;51.660;5.824;2023-09-07T16:17:13;4.97;;;4.53;;
56593;SDS011;42474;51.660;5.824;2023-09-07T16:21:14;5.31;;;4.79;;
56593;SDS011;42474;51.660;5.824;2023-09-07T16:25:15;6;;;5.5;;
56593;SDS011;42474;51.660;5.824;2023-09-07T16:29:13;6.36;;;5.78;;
56593;SDS011;42474;51.660;5.824;2023-09-07T16:33:13;5.72;;;5.11;;
56593;SDS011;42474;51.660;5.824;2023-09-07T16:37:13;5.42;;;4.95;;
56593;SDS011;42474;51.660;5.824;2023-09-07T16:41:14;6.84;;;5.18;;
56593;SDS011;42474;51.660;5.824;2023-09-07T16:45:14;5.69;;;5.2;;
56593;SDS011;42474;51.660;5.824;2023-09-07T16:49:13;5.78;;;4.98;;
56593;SDS011;42474;51.660;5.824;2023-09-07T16:53:13;5.97;;;4.99;;
56593;SDS011;42474;51.660;5.824;2023-09-07T16:57:14;6.01;;;4.94;;
56593;SDS011;42474;51.660;5.824;2023-09-07T17:01:13;6.01;;;5.19;;
56593;SDS011;42474;51.660;5.824;2023-09-07T17:05:14;6.12;;;5.11;;
56593;SDS011;42474;51.660;5.824;2023-09-07T17:09:14;6.2;;;5.47;;
56593;SDS011;42474;51.660;5.824;2023-09-07T17:13:14;6.18;;;5.43;;
56593;SDS011;42474;51.660;5.824;2023-09-07T17:17:14;6.19;;;5.27;;
56593;SDS011;42474;51.660;5.824;2023-09-07T17:21:14;5.95;;;5.31;;
56593;SDS011;42474;51.660;5.824;2023-09-07T17:25:15;7.92;;;5.42;;
56593;SDS011;42474;51.660;5.824;2023-09-07T17:29:14;6.4;;;5.36;;
56593;SDS011;42474;51.660;5.824;2023-09-07T17:33:13;7.32;;;5.68;;
56593;SDS011;42474;51.660;5.824;2023-09-07T17:37:14;6.18;;;5.64;;
56593;SDS011;42474;51.660;5.824;2023-09-07T17:41:14;6.29;;;5.72;;
56593;SDS011;42474;51.660;5.824;2023-09-07T17:45:14;6.25;;;5.61;;
56593;SDS011;42474;51.660;5.824;2023-09-07T17:49:14;7.15;;;5.55;;
56593;SDS011;42474;51.660;5.824;2023-09-07T17:53:14;6.03;;;5.51;;
56593;SDS011;42474;51.660;5.824;2023-09-07T17:57:14;6.76;;;6.12;;
56593;SDS011;42474;51.660;5.824;2023-09-07T18:01:15;6.67;;;5.8;;
56593;SDS011;42474;51.660;5.824;2023-09-07T18:05:14;7.33;;;5.99;;
56593;SDS011;42474;51.660;5.824;2023-09-07T18:09:14;7.38;;;6.19;;
56593;SDS011;42474;51.660;5.824;2023-09-07T18:13:14;7.75;;;6.38;;
56593;SDS011;42474;51.660;5.824;2023-09-07T18:17:14;6.78;;;6.04;;
56593;SDS011;42474;51.660;5.824;2023-09-07T18:21:14;7.52;;;6.25;;
56593;SDS011;42474;51.660;5.824;2023-09-07T18:25:14;7.93;;;6.47;;
56593;SDS011;42474;51.660;5.824;2023-09-07T18:29:14;9.21;;;6.61;;
56593;SDS011;42474;51.660;5.824;2023-09-07T18:33:14;8.04;;;7.27;;
56593;SDS011;42474;51.660;5.824;2023-09-07T18:37:14;8.29;;;7.39;;
56593;SDS011;42474;51.660;5.824;2023-09-07T18:41:14;9.37;;;7.62;;
56593;SDS011;42474;51.660;5.824;2023-09-07T18:45:14;9.04;;;7.9;;
56593;SDS011;42474;51.660;5.824;2023-09-07T18:49:14;8.68;;;7.35;;
56593;SDS011;42474;51.660;5.824;2023-09-07T18:53:14;8.59;;;7.69;;
56593;SDS011;42474;51.660;5.824;2023-09-07T18:57:14;10.19;;;7.57;;
56593;SDS011;42474;51.660;5.824;2023-09-07T19:01:16;9.71;;;8.07;;
56593;SDS011;42474;51.660;5.824;2023-09-07T19:05:14;10.09;;;8.37;;
56593;SDS011;42474;51.660;5.824;2023-09-07T19:09:14;9.21;;;8.27;;
56593;SDS011;42474;51.660;5.824;2023-09-07T19:13:14;9.99;;;8.45;;
56593;SDS011;42474;51.660;5.824;2023-09-07T19:17:14;10.04;;;8.57;;
56593;SDS011;42474;51.660;5.824;2023-09-07T19:21:14;10.34;;;8.83;;
56593;SDS011;42474;51.660;5.824;2023-09-07T19:25:14;9.23;;;8.11;;
56593;SDS011;42474;51.660;5.824;2023-09-07T19:29:14;10.65;;;8.85;;
56593;SDS011;42474;51.660;5.824;2023-09-07T19:33:14;10.16;;;8.97;;
56593;SDS011;42474;51.660;5.824;2023-09-07T19:37:14;10.84;;;8.68;;
56593;SDS011;42474;51.660;5.824;2023-09-07T19:41:14;10.73;;;8.18;;
56593;SDS011;42474;51.660;5.824;2023-09-07T19:45:14;9.76;;;8.55;;
56593;SDS011;42474;51.660;5.824;2023-09-07T19:49:14;8.67;;;7.79;;
56593;SDS011;42474;51.660;5.824;2023-09-07T19:53:14;8.41;;;7.44;;
56593;SDS011;42474;51.660;5.824;2023-09-07T19:57:14;8.59;;;7.25;;
56593;SDS011;42474;51.660;5.824;2023-09-07T20:01:16;9.55;;;7.21;;
56593;SDS011;42474;51.660;5.824;2023-09-07T20:05:14;8.31;;;7.38;;
56593;SDS011;42474;51.660;5.824;2023-09-07T20:09:14;8.25;;;7.43;;
56593;SDS011;42474;51.660;5.824;2023-09-07T20:17:14;8.57;;;7.52;;
56593;SDS011;42474;51.660;5.824;2023-09-07T20:25:14;8.58;;;7.76;;
56593;SDS011;42474;51.660;5.824;2023-09-07T20:33:14;8.04;;;6.91;;
56593;SDS011;42474;51.660;5.824;2023-09-07T20:37:14;8.19;;;7.39;;
56593;SDS011;42474;51.660;5.824;2023-09-07T20:45:14;9.41;;;7.89;;
56593;SDS011;42474;51.660;5.824;2023-09-07T20:49:14;9;;;8.01;;
56593;SDS011;42474;51.660;5.824;2023-09-07T20:53:14;9.52;;;7.8;;
56593;SDS011;42474;51.660;5.824;2023-09-07T20:57:14;8.91;;;8.04;;
56593;SDS011;42474;51.660;5.824;2023-09-07T21:01:14;9.29;;;8.25;;
56593;SDS011;42474;51.660;5.824;2023-09-07T21:05:14;11.09;;;8.5;;
56593;SDS011;42474;51.660;5.824;2023-09-07T21:09:14;9.86;;;8.3;;
56593;SDS011;42474;51.660;5.824;2023-09-07T21:13:14;9.32;;;7.85;;
56593;SDS011;42474;51.660;5.824;2023-09-07T21:17:14;8.79;;;7.91;;
56593;SDS011;42474;51.660;5.824;2023-09-07T21:21:14;8.72;;;7.22;;
56593;SDS011;42474;51.660;5.824;2023-09-07T21:25:14;8.65;;;7.74;;
56593;SDS011;42474;51.660;5.824;2023-09-07T21:29:14;9.17;;;7.81;;
56593;SDS011;42474;51.660;5.824;2023-09-07T21:33:14;8.59;;;7.72;;
56593;SDS011;42474;51.660;5.824;2023-09-07T21:37:14;9.38;;;8.16;;
56593;SDS011;42474;51.660;5.824;2023-09-07T21:41:14;9.16;;;7.78;;
56593;SDS011;42474;51.660;5.824;2023-09-07T21:45:14;8.87;;;7.6;;
56593;SDS011;42474;51.660;5.824;2023-09-07T21:49:15;10.21;;;8.28;;
56593;SDS011;42474;51.660;5.824;2023-09-07T21:53:14;8.57;;;7.64;;
56593;SDS011;42474;51.660;5.824;2023-09-07T21:57:14;8.57;;;7.73;;
56593;SDS011;42474;51.660;5.824;2023-09-07T22:01:14;8.84;;;7.93;;
56593;SDS011;42474;51.660;5.824;2023-09-07T22:05:14;8.66;;;7.75;;
56593;SDS011;42474;51.660;5.824;2023-09-07T22:09:14;8.43;;;7.57;;
56593;SDS011;42474;51.660;5.824;2023-09-07T22:13:14;10.24;;;7.72;;
56593;SDS011;42474;51.660;5.824;2023-09-07T22:17:14;10.37;;;8.11;;
56593;SDS011;42474;51.660;5.824;2023-09-07T22:21:14;8.17;;;7.42;;
56593;SDS011;42474;51.660;5.824;2023-09-07T22:25:14;9.13;;;8.02;;
56593;SDS011;42474;51.660;5.824;2023-09-07T22:29:14;9.81;;;8.16;;
56593;SDS011;42474;51.660;5.824;2023-09-07T22:33:14;9.67;;;7.76;;
56593;SDS011;42474;51.660;5.824;2023-09-07T22:37:14;9.11;;;8.16;;
56593;SDS011;42474;51.660;5.824;2023-09-07T22:41:14;10.49;;;8.68;;
56593;SDS011;42474;51.660;5.824;2023-09-07T22:45:14;9.43;;;8.17;;
56593;SDS011;42474;51.660;5.824;2023-09-07T22:49:14;11.15;;;9.02;;
56593;SDS011;42474;51.660;5.824;2023-09-07T22:53:14;9.78;;;8.77;;
56593;SDS011;42474;51.660;5.824;2023-09-07T22:57:14;10.8;;;8.37;;
56593;SDS011;42474;51.660;5.824;2023-09-07T23:01:14;8.97;;;8.06;;
56593;SDS011;42474;51.660;5.824;2023-09-07T23:05:14;10.22;;;8.46;;
56593;SDS011;42474;51.660;5.824;2023-09-07T23:09:14;9.91;;;8.43;;
56593;SDS011;42474;51.660;5.824;2023-09-07T23:13:14;11.1;;;8.66;;
56593;SDS011;42474;51.660;5.824;2023-09-07T23:17:14;10.05;;;8.91;;
56593;SDS011;42474;51.660;5.824;2023-09-07T23:21:14;9.58;;;8.43;;
56593;SDS011;42474;51.660;5.824;2023-09-07T23:25:14;11.28;;;9.07;;
56593;SDS011;42474;51.660;5.824;2023-09-07T23:29:14;9.9;;;8.73;;
56593;SDS011;42474;51.660;5.824;2023-09-07T23:33:14;12.01;;;9.41;;
56593;SDS011;42474;51.660;5.824;2023-09-07T23:37:14;11.03;;;9.75;;
56593;SDS011;42474;51.660;5.824;2023-09-07T23:41:14;11.01;;;9.89;;
56593;SDS011;42474;51.660;5.824;2023-09-07T23:45:14;10.82;;;9.67;;
56593;SDS011;42474;51.660;5.824;2023-09-07T23:49:14;12.11;;;9.3;;
56593;SDS011;42474;51.660;5.824;2023-09-07T23:53:14;11.49;;;9.1;;
56593;SDS011;42474;51.660;5.824;2023-09-07T23:57:14;13.14;;;9.53;;
